Time;durP1;ratioP1;P1;durP2;ratioP2;P2;SDS_P1;SDS_P2;PMS_P1;PMS_P2;Temp;Humidity;BMP_temperature;BMP_pressure;BME280_temperature;BME280_humidity;BME280_pressure;Samples;Min_cycle;Max_cycle;Signal;HPM_P1;HPM_P2
2023/05/28 00:00:42;;;;;;;10.82;7.32;;;11.80;99.90;;;;;;5018546;28;20184;-86
2023/05/28 00:03:08;;;;;;;13.30;7.38;;;11.70;99.90;;;;;;5018709;28;20203;-86
2023/05/28 00:05:34;;;;;;;14.70;7.03;;;11.70;99.90;;;;;;5018207;28;20199;-86
2023/05/28 00:08:00;;;;;;;10.27;7.78;;;11.60;99.90;;;;;;5019630;28;20186;-86
2023/05/28 00:10:26;;;;;;;12.50;8.30;;;11.60;99.90;;;;;;5019731;28;20238;-86
2023/05/28 00:12:53;;;;;;;10.65;7.78;;;11.60;99.90;;;;;;5018341;28;20172;-86
2023/05/28 00:15:18;;;;;;;11.43;7.82;;;11.70;99.90;;;;;;5018101;28;20278;-86
2023/05/28 00:17:44;;;;;;;13.00;8.35;;;11.70;99.90;;;;;;5017821;28;20266;-86
2023/05/28 00:20:10;;;;;;;11.38;7.63;;;11.60;99.90;;;;;;5018109;28;20230;-86
2023/05/28 00:22:36;;;;;;;13.68;8.38;;;11.50;99.90;;;;;;5019757;28;20180;-86
2023/05/28 00:25:02;;;;;;;13.00;8.98;;;11.50;99.90;;;;;;5017872;28;20672;-86
2023/05/28 00:27:28;;;;;;;13.07;9.30;;;11.50;99.90;;;;;;5019671;28;20172;-86
2023/05/28 00:29:53;;;;;;;14.68;9.45;;;11.50;99.90;;;;;;5018446;28;20271;-87
2023/05/28 00:32:19;;;;;;;16.88;9.65;;;11.30;99.90;;;;;;5018827;28;20180;-86
2023/05/28 00:34:45;;;;;;;14.35;9.43;;;11.30;99.90;;;;;;5018861;28;20238;-86
2023/05/28 00:37:11;;;;;;;15.10;9.63;;;11.30;99.90;;;;;;5018292;28;20180;-86
2023/05/28 00:39:36;;;;;;;14.85;9.45;;;11.30;99.90;;;;;;5017636;28;20304;-86
2023/05/28 00:42:03;;;;;;;15.05;8.43;;;11.20;99.90;;;;;;5019571;28;20160;-86
2023/05/28 00:44:33;;;;;;;12.32;8.05;;;11.30;99.90;;;;;;5019024;28;20200;-86
2023/05/28 00:46:59;;;;;;;12.52;7.75;;;11.30;99.90;;;;;;5017593;28;20273;-86
2023/05/28 00:49:26;;;;;;;12.98;7.80;;;11.20;99.90;;;;;;5018078;28;20633;-87
2023/05/28 00:51:54;;;;;;;13.75;7.63;;;11.20;99.90;;;;;;5018943;28;20250;-87
2023/05/28 00:54:20;;;;;;;13.43;8.05;;;11.20;99.90;;;;;;5016442;28;20573;-86
2023/05/28 00:56:48;;;;;;;15.75;8.30;;;11.10;99.90;;;;;;5017730;28;20175;-87
2023/05/28 00:59:16;;;;;;;15.05;8.55;;;11.10;99.90;;;;;;5019019;28;20627;-86
2023/05/28 01:01:43;;;;;;;12.27;7.85;;;11.00;99.90;;;;;;5019293;28;20180;-86
2023/05/28 01:04:08;;;;;;;13.32;7.80;;;10.90;99.90;;;;;;5018568;28;20717;-86
2023/05/28 01:06:38;;;;;;;13.27;8.73;;;10.90;99.90;;;;;;5018540;28;20262;-86
2023/05/28 01:09:05;;;;;;;12.27;8.15;;;10.90;99.90;;;;;;5016939;28;20241;-87
2023/05/28 01:11:32;;;;;;;13.88;7.72;;;10.80;99.90;;;;;;5016992;28;20204;-86
2023/05/28 01:13:58;;;;;;;14.52;8.05;;;10.80;99.90;;;;;;5018489;28;20282;-86
2023/05/28 01:16:27;;;;;;;10.75;7.78;;;10.80;99.90;;;;;;5018622;28;20172;-86
2023/05/28 01:18:55;;;;;;;11.63;7.40;;;10.80;99.90;;;;;;5018745;28;20547;-86
2023/05/28 01:21:23;;;;;;;10.80;7.75;;;10.60;99.90;;;;;;5018362;28;20175;-87
2023/05/28 01:23:49;;;;;;;12.20;7.90;;;10.30;99.90;;;;;;5017350;28;20180;-86
2023/05/28 01:26:16;;;;;;;11.40;8.23;;;10.00;99.90;;;;;;5018512;28;20242;-86
2023/05/28 01:28:46;;;;;;;11.65;8.35;;;9.90;99.90;;;;;;5018072;28;20271;-87
2023/05/28 01:31:13;;;;;;;13.90;8.38;;;9.70;99.90;;;;;;5018041;28;20207;-87
2023/05/28 01:33:43;;;;;;;11.77;7.95;;;9.60;99.90;;;;;;5017681;28;20237;-86
2023/05/28 01:36:31;;;;;;;15.00;8.30;;;9.50;99.90;;;;;;5017665;28;20176;-86
2023/05/28 01:39:00;;;;;;;11.93;7.77;;;9.50;99.90;;;;;;5017164;28;20658;-87
2023/05/28 01:41:27;;;;;;;10.50;8.27;;;9.40;99.90;;;;;;5017639;28;20182;-87
2023/05/28 01:43:54;;;;;;;12.57;8.35;;;9.40;99.90;;;;;;5018614;28;20710;-86
2023/05/28 01:46:21;;;;;;;13.75;8.48;;;9.40;99.90;;;;;;5017060;28;20191;-86
2023/05/28 01:48:47;;;;;;;10.90;7.90;;;9.40;99.90;;;;;;5017746;28;20625;-86
2023/05/28 01:51:20;;;;;;;10.07;7.38;;;9.50;99.90;;;;;;5018071;28;20199;-86
2023/05/28 01:53:46;;;;;;;11.35;7.60;;;9.50;99.90;;;;;;5017749;28;20670;-85
2023/05/28 01:56:12;;;;;;;12.07;8.13;;;9.40;99.90;;;;;;5016850;28;20199;-86
2023/05/28 01:58:37;;;;;;;11.83;8.13;;;9.30;99.90;;;;;;5016327;28;20233;-86
2023/05/28 02:01:18;;;;;;;11.80;8.10;;;9.30;99.90;;;;;;5016367;28;20282;-86
2023/05/28 02:03:44;;;;;;;11.17;7.17;;;9.30;99.90;;;;;;5016416;28;20251;-85
2023/05/28 02:06:10;;;;;;;9.37;7.50;;;9.20;99.90;;;;;;5016447;28;20273;-87
2023/05/28 02:08:36;;;;;;;11.77;8.43;;;9.20;99.90;;;;;;5016684;28;20183;-87
2023/05/28 02:11:02;;;;;;;12.57;7.63;;;9.10;99.90;;;;;;5017969;28;20276;-87
2023/05/28 02:13:28;;;;;;;10.40;7.77;;;9.10;99.90;;;;;;5017433;28;20176;-86
2023/05/28 02:15:55;;;;;;;12.00;8.13;;;9.00;99.90;;;;;;5018246;28;20668;-86
2023/05/28 02:18:21;;;;;;;9.53;7.33;;;9.10;99.90;;;;;;5016140;28;20202;-86
2023/05/28 02:20:46;;;;;;;13.80;8.47;;;9.20;99.90;;;;;;5016744;28;20224;-86
2023/05/28 02:23:12;;;;;;;9.98;7.32;;;9.30;99.90;;;;;;5018262;28;20723;-86
2023/05/28 02:25:38;;;;;;;10.43;7.68;;;9.40;99.90;;;;;;5017680;28;20569;-87
2023/05/28 02:28:04;;;;;;;10.27;6.83;;;9.30;99.90;;;;;;5016568;28;20211;-86
2023/05/28 02:30:30;;;;;;;12.43;7.80;;;9.40;99.90;;;;;;5017705;28;20203;-87
2023/05/28 02:32:56;;;;;;;10.48;7.18;;;9.40;99.90;;;;;;5016597;28;20172;-86
2023/05/28 02:35:23;;;;;;;11.93;7.60;;;9.50;99.90;;;;;;5017488;28;20689;-86
2023/05/28 02:37:49;;;;;;;9.57;7.63;;;9.50;99.90;;;;;;5016102;28;20178;-86
2023/05/28 02:40:15;;;;;;;12.37;7.93;;;9.60;99.90;;;;;;5017738;28;20180;-86
2023/05/28 02:42:41;;;;;;;11.43;7.77;;;9.60;99.90;;;;;;5017584;28;20172;-87
2023/05/28 02:45:07;;;;;;;13.73;8.20;;;9.60;99.90;;;;;;5018071;28;20686;-86
2023/05/28 02:47:33;;;;;;;14.90;8.13;;;9.60;99.90;;;;;;5016495;28;20204;-86
2023/05/28 02:49:58;;;;;;;10.90;7.23;;;9.50;99.90;;;;;;5017615;28;20266;-86
2023/05/28 02:52:24;;;;;;;13.40;8.23;;;9.20;99.90;;;;;;5017505;28;20172;-86
2023/05/28 02:54:50;;;;;;;12.30;7.27;;;9.00;99.90;;;;;;5016145;28;20246;-86
2023/05/28 02:57:15;;;;;;;9.93;7.67;;;8.90;99.90;;;;;;5017498;28;20172;-87
2023/05/28 02:59:41;;;;;;;10.00;7.40;;;8.80;99.90;;;;;;5016517;28;20179;-87
2023/05/28 03:02:07;;;;;;;9.93;7.00;;;8.70;99.90;;;;;;5016073;28;20640;-86
2023/05/28 03:04:35;;;;;;;11.90;7.45;;;8.80;99.90;;;;;;5017973;28;20543;-87
2023/05/28 03:07:01;;;;;;;10.50;7.80;;;8.90;99.90;;;;;;5016021;28;20171;-87
2023/05/28 03:09:27;;;;;;;9.60;7.57;;;9.00;99.90;;;;;;5016472;28;20226;-86
2023/05/28 03:11:52;;;;;;;10.93;7.37;;;9.00;99.90;;;;;;5017045;28;20195;-87
2023/05/28 03:14:18;;;;;;;11.33;7.50;;;9.00;99.90;;;;;;5016392;28;20567;-87
2023/05/28 03:16:44;;;;;;;12.53;8.47;;;9.00;99.90;;;;;;5016945;28;20229;-87
2023/05/28 03:19:09;;;;;;;11.73;8.17;;;9.00;99.90;;;;;;5020268;28;20187;-86
2023/05/28 03:21:35;;;;;;;11.77;8.60;;;9.00;99.90;;;;;;5020040;28;20275;-87
2023/05/28 03:24:01;;;;;;;11.30;7.73;;;9.10;99.90;;;;;;5019822;28;20195;-86
2023/05/28 03:26:27;;;;;;;12.40;8.60;;;9.10;99.90;;;;;;5019869;28;20180;-87
2023/05/28 03:28:52;;;;;;;11.80;8.67;;;9.20;99.90;;;;;;5020010;28;20180;-87
2023/05/28 03:31:19;;;;;;;12.03;8.50;;;9.10;99.90;;;;;;5019621;28;20207;-87
2023/05/28 03:33:45;;;;;;;14.37;8.43;;;9.10;99.90;;;;;;5019837;28;20172;-87
2023/05/28 03:36:11;;;;;;;14.73;8.97;;;9.00;99.90;;;;;;5019890;28;20172;-87
2023/05/28 03:38:37;;;;;;;13.40;8.33;;;8.90;99.90;;;;;;5019782;28;20204;-87
2023/05/28 03:41:02;;;;;;;11.30;9.03;;;9.00;99.90;;;;;;5019904;28;20179;-87
2023/05/28 03:43:30;;;;;;;16.33;9.53;;;8.90;99.90;;;;;;5019705;28;20555;-87
2023/05/28 03:45:55;;;;;;;14.13;8.90;;;8.90;99.90;;;;;;5020097;28;20291;-88
2023/05/28 03:48:21;;;;;;;12.63;9.10;;;8.90;99.90;;;;;;5020127;28;20226;-87
2023/05/28 03:50:47;;;;;;;12.13;8.80;;;8.90;99.90;;;;;;5021442;28;20200;-87
2023/05/28 03:53:12;;;;;;;12.83;8.40;;;8.90;99.90;;;;;;5019916;28;20187;-87
2023/05/28 03:55:38;;;;;;;12.50;8.77;;;8.70;99.90;;;;;;5020855;28;20557;-88
2023/05/28 03:58:04;;;;;;;13.20;9.43;;;8.60;99.90;;;;;;5020071;28;20183;-87
2023/05/28 04:00:30;;;;;;;15.67;10.20;;;8.60;99.90;;;;;;5020697;28;20180;-87
2023/05/28 04:02:55;;;;;;;12.60;9.17;;;8.70;99.90;;;;;;5021653;28;20230;-87
2023/05/28 04:05:21;;;;;;;14.53;8.90;;;8.70;99.90;;;;;;5019747;28;20199;-87
2023/05/28 04:07:48;;;;;;;13.73;9.93;;;8.70;99.90;;;;;;5020205;28;20184;-87
2023/05/28 04:10:14;;;;;;;13.60;9.30;;;8.70;99.90;;;;;;5019383;28;20230;-87
2023/05/28 04:12:40;;;;;;;17.63;10.73;;;8.80;99.90;;;;;;5018392;28;20172;-86
2023/05/28 04:15:08;;;;;;;11.13;9.63;;;8.90;99.90;;;;;;5018931;28;20303;-86
2023/05/28 04:17:33;;;;;;;13.33;10.53;;;8.70;99.90;;;;;;5018250;28;20183;-86
2023/05/28 04:19:59;;;;;;;16.87;10.13;;;8.70;99.90;;;;;;5018908;28;20176;-87
2023/05/28 04:22:25;;;;;;;15.13;9.20;;;8.60;99.90;;;;;;5019906;28;20185;-87
2023/05/28 04:24:56;;;;;;;11.13;8.13;;;8.50;99.90;;;;;;5018568;28;20196;-87
2023/05/28 04:27:23;;;;;;;10.97;7.93;;;8.40;99.90;;;;;;5019220;28;20182;-87
2023/05/28 04:29:49;;;;;;;16.13;9.40;;;8.30;99.90;;;;;;5017503;28;20186;-87
2023/05/28 04:32:14;;;;;;;14.17;9.53;;;8.40;99.90;;;;;;5019084;28;20270;-87
2023/05/28 04:34:43;;;;;;;12.90;9.93;;;8.30;99.90;;;;;;5019344;28;20238;-87
2023/05/28 04:37:10;;;;;;;15.90;9.43;;;8.30;99.90;;;;;;5019358;28;20183;-87
2023/05/28 04:39:37;;;;;;;13.47;9.63;;;8.30;99.90;;;;;;5020306;28;20251;-87
2023/05/28 04:42:07;;;;;;;12.93;9.60;;;8.40;99.90;;;;;;5020292;28;20180;-87
2023/05/28 04:44:33;;;;;;;15.70;9.57;;;8.40;99.90;;;;;;5018731;28;20231;-87
2023/05/28 04:46:59;;;;;;;14.23;9.37;;;8.50;99.90;;;;;;5018610;28;20196;-87
2023/05/28 04:49:25;;;;;;;12.77;9.53;;;8.50;99.90;;;;;;5018264;28;20667;-87
2023/05/28 04:51:52;;;;;;;12.33;9.73;;;8.50;99.90;;;;;;5019660;28;20203;-87
2023/05/28 04:54:17;;;;;;;16.60;9.73;;;8.60;99.90;;;;;;5019228;28;20250;-86
2023/05/28 04:56:43;;;;;;;12.70;9.60;;;8.60;99.90;;;;;;5021727;28;20184;-86
2023/05/28 04:59:09;;;;;;;14.00;10.57;;;8.80;99.90;;;;;;5018089;28;20191;-86
2023/05/28 05:01:36;;;;;;;15.43;10.10;;;8.90;99.90;;;;;;5018575;28;20183;-87
2023/05/28 05:04:02;;;;;;;16.13;10.90;;;9.00;99.90;;;;;;5017842;28;20207;-86
2023/05/28 05:06:28;;;;;;;15.53;10.80;;;9.20;99.90;;;;;;5017639;28;20180;-86
2023/05/28 05:08:53;;;;;;;18.37;10.80;;;9.30;99.90;;;;;;5018678;28;20239;-86
2023/05/28 05:11:20;;;;;;;17.17;10.43;;;9.40;99.90;;;;;;5018905;28;20211;-87
2023/05/28 05:13:45;;;;;;;14.07;9.13;;;9.40;99.90;;;;;;5019553;28;20175;-86
2023/05/28 05:16:12;;;;;;;14.07;10.17;;;9.40;99.90;;;;;;5019067;28;20633;-87
2023/05/28 05:18:38;;;;;;;14.87;10.67;;;9.50;99.90;;;;;;5019232;28;20176;-86
2023/05/28 05:21:04;;;;;;;14.80;10.00;;;9.60;99.90;;;;;;5018775;28;20187;-86
2023/05/28 05:23:30;;;;;;;18.47;10.03;;;9.60;99.90;;;;;;5019748;28;20194;-86
2023/05/28 05:25:55;;;;;;;15.33;9.70;;;9.70;99.90;;;;;;5018721;28;20199;-86
2023/05/28 05:28:21;;;;;;;16.93;11.23;;;9.90;99.90;;;;;;5017717;28;20182;-86
2023/05/28 05:30:47;;;;;;;14.03;9.87;;;10.00;99.90;;;;;;5019548;28;20731;-86
2023/05/28 05:33:13;;;;;;;22.95;11.00;;;10.10;99.90;;;;;;5019000;28;20175;-87
2023/05/28 05:35:38;;;;;;;16.63;10.17;;;10.10;99.90;;;;;;5018771;28;20191;-86
2023/05/28 05:38:05;;;;;;;16.80;11.00;;;10.30;99.90;;;;;;5018759;28;20214;-86
2023/05/28 05:40:31;;;;;;;17.48;9.95;;;10.30;99.90;;;;;;5017702;28;20180;-86
2023/05/28 05:42:57;;;;;;;19.63;10.67;;;10.50;99.90;;;;;;5018201;28;20179;-86
2023/05/28 05:45:22;;;;;;;17.95;10.52;;;10.50;99.90;;;;;;5020230;28;20205;-84
2023/05/28 05:47:48;;;;;;;14.27;9.57;;;10.60;99.90;;;;;;5016815;28;20203;-84
2023/05/28 05:50:14;;;;;;;12.82;9.48;;;10.70;99.90;;;;;;5015483;28;20215;-84
2023/05/28 05:52:40;;;;;;;16.77;10.32;;;10.80;99.90;;;;;;5016813;28;20641;-84
2023/05/28 05:55:07;;;;;;;15.48;9.65;;;10.80;99.90;;;;;;5016761;28;20287;-83
2023/05/28 05:57:36;;;;;;;17.30;9.52;;;10.90;99.90;;;;;;5015094;28;20180;-83
2023/05/28 06:00:06;;;;;;;15.60;10.00;;;10.90;99.90;;;;;;5015616;28;20184;-83
2023/05/28 06:02:31;;;;;;;15.90;9.40;;;11.00;99.90;;;;;;5017161;28;20226;-83
2023/05/28 06:04:57;;;;;;;13.93;9.80;;;11.10;99.90;;;;;;5015047;28;20290;-83
2023/05/28 06:07:23;;;;;;;11.88;8.65;;;11.20;99.90;;;;;;5016936;28;20172;-83
2023/05/28 06:09:50;;;;;;;11.52;8.38;;;11.30;99.90;;;;;;5015287;28;20187;-83
2023/05/28 06:12:15;;;;;;;18.40;9.55;;;11.50;99.90;;;;;;5017022;28;20172;-83
2023/05/28 06:14:41;;;;;;;14.35;9.02;;;11.50;99.90;;;;;;5016782;28;20282;-83
2023/05/28 06:17:09;;;;;;;15.63;10.20;;;11.60;99.90;;;;;;5016722;28;20171;-83
2023/05/28 06:19:34;;;;;;;15.50;9.80;;;11.70;99.90;;;;;;5016617;28;20588;-83
2023/05/28 06:22:00;;;;;;;15.25;9.88;;;11.80;99.90;;;;;;5016745;28;20208;-83
2023/05/28 06:24:26;;;;;;;13.88;9.57;;;11.90;99.90;;;;;;5016740;28;20200;-83
2023/05/28 06:26:52;;;;;;;16.48;10.43;;;11.90;99.90;;;;;;5019469;28;20183;-84
2023/05/28 06:29:17;;;;;;;16.02;9.60;;;12.00;99.90;;;;;;5018720;28;20172;-84
2023/05/28 06:31:43;;;;;;;16.85;9.63;;;12.10;99.90;;;;;;5017458;28;20207;-84
2023/05/28 06:34:09;;;;;;;14.15;9.45;;;12.20;99.90;;;;;;5015459;28;20206;-83
2023/05/28 06:36:35;;;;;;;12.32;9.30;;;12.30;99.90;;;;;;5016573;28;20163;-84
2023/05/28 06:39:03;;;;;;;13.07;8.80;;;12.40;99.90;;;;;;5016406;28;20191;-86
2023/05/28 06:41:28;;;;;;;12.73;8.60;;;12.50;99.90;;;;;;5016242;28;20640;-87
2023/05/28 06:43:54;;;;;;;17.33;7.90;;;12.60;99.90;;;;;;5015699;28;20298;-87
2023/05/28 06:46:21;;;;;;;15.98;8.82;;;12.70;99.90;;;;;;5014846;28;20183;-87
2023/05/28 06:48:47;;;;;;;15.73;7.75;;;12.80;99.90;;;;;;5014225;28;20267;-87
2023/05/28 06:51:12;;;;;;;16.63;8.43;;;12.90;99.90;;;;;;5017035;28;20689;-87
2023/05/28 06:53:38;;;;;;;12.60;7.47;;;13.10;99.90;;;;;;5018313;28;20176;-87
2023/05/28 06:56:05;;;;;;;14.15;6.88;;;13.20;99.90;;;;;;5018270;28;20572;-88
2023/05/28 06:58:31;;;;;;;15.10;8.40;;;13.40;99.90;;;;;;5020116;28;20167;-87
2023/05/28 07:00:58;;;;;;;10.93;7.88;;;13.50;99.90;;;;;;5019859;28;20176;-87
2023/05/28 07:03:23;;;;;;;13.70;8.45;;;13.60;99.90;;;;;;5020267;28;20180;-88
2023/05/28 07:05:49;;;;;;;11.95;8.00;;;13.70;99.90;;;;;;5018368;28;20199;-87
2023/05/28 07:08:15;;;;;;;11.27;6.55;;;13.80;99.90;;;;;;5018494;28;20183;-87
2023/05/28 07:10:41;;;;;;;14.02;7.28;;;13.90;99.90;;;;;;5019343;28;20672;-87
2023/05/28 07:13:07;;;;;;;12.07;6.82;;;14.10;99.90;;;;;;5018400;28;20176;-87
2023/05/28 07:15:32;;;;;;;11.98;7.53;;;14.20;99.90;;;;;;5018082;28;20203;-87
2023/05/28 07:18:00;;;;;;;13.93;7.90;;;14.40;99.90;;;;;;5019577;28;20532;-87
2023/05/28 07:20:27;;;;;;;12.55;7.47;;;14.50;99.90;;;;;;5019559;28;20226;-87
2023/05/28 07:22:53;;;;;;;16.13;8.25;;;14.60;99.90;;;;;;5020572;28;20176;-87
2023/05/28 07:25:19;;;;;;;16.67;8.65;;;14.70;99.90;;;;;;5020244;28;20200;-87
2023/05/28 07:27:45;;;;;;;13.02;7.70;;;14.90;99.90;;;;;;5018685;28;20592;-87
2023/05/28 07:30:10;;;;;;;18.02;8.13;;;15.00;99.90;;;;;;5017456;28;20591;-87
2023/05/28 07:32:36;;;;;;;12.73;7.88;;;15.10;99.90;;;;;;5018016;28;20187;-87
2023/05/28 07:35:02;;;;;;;14.30;7.63;;;15.20;99.90;;;;;;5019125;28;20239;-87
2023/05/28 07:37:28;;;;;;;13.05;7.05;;;15.30;99.90;;;;;;5018065;28;20176;-87
2023/05/28 07:39:53;;;;;;;12.95;7.15;;;15.40;99.90;;;;;;5017701;28;20182;-87
2023/05/28 07:42:20;;;;;;;14.95;7.47;;;15.50;99.90;;;;;;5019223;28;20172;-87
2023/05/28 07:44:46;;;;;;;11.07;7.13;;;15.50;99.90;;;;;;5017790;28;20195;-87
2023/05/28 07:47:12;;;;;;;11.00;7.47;;;15.60;99.90;;;;;;5019014;28;20686;-87
2023/05/28 07:49:38;;;;;;;9.63;6.85;;;15.70;99.90;;;;;;5018079;28;20176;-86
2023/05/28 07:52:04;;;;;;;11.90;6.45;;;15.80;99.90;;;;;;5017004;28;20214;-86
2023/05/28 07:54:30;;;;;;;9.32;5.80;;;15.90;99.90;;;;;;5016906;28;20196;-87
2023/05/28 07:56:56;;;;;;;9.80;5.88;;;16.00;99.90;;;;;;5019853;28;20541;-87
2023/05/28 07:59:22;;;;;;;10.82;5.93;;;16.20;79.70;;;;;;5017547;28;20180;-87
2023/05/28 08:01:47;;;;;;;11.25;5.93;;;16.30;1.00;;;;;;5016793;28;20251;-88
2023/05/28 08:04:13;;;;;;;9.57;5.88;;;16.40;34.20;;;;;;5017365;28;20318;-87
2023/05/28 08:06:39;;;;;;;8.60;5.20;;;16.50;1.00;;;;;;5017383;28;20687;-87
2023/05/28 08:09:05;;;;;;;11.05;5.88;;;16.60;1.00;;;;;;5016711;28;20227;-86
2023/05/28 08:11:31;;;;;;;11.60;5.60;;;16.70;1.00;;;;;;5016512;28;20222;-88
2023/05/28 08:13:57;;;;;;;8.88;5.20;;;16.70;1.00;;;;;;5017955;28;20172;-87
2023/05/28 08:16:23;;;;;;;9.27;6.13;;;16.90;1.00;;;;;;5017210;28;20229;-87
2023/05/28 08:18:49;;;;;;;13.45;5.90;;;17.00;1.00;;;;;;5017732;28;20172;-87
2023/05/28 08:21:15;;;;;;;10.15;5.20;;;17.10;1.00;;;;;;5018139;28;20548;-88
2023/05/28 08:23:40;;;;;;;9.48;5.78;;;17.20;99.90;;;;;;5018066;28;20176;-88
2023/05/28 08:26:06;;;;;;;9.75;5.53;;;17.30;1.00;;;;;;5017119;28;20263;-86
2023/05/28 08:28:32;;;;;;;6.55;4.95;;;17.30;1.00;;;;;;5016480;28;20187;-88
2023/05/28 08:30:57;;;;;;;10.38;4.95;;;17.40;1.00;;;;;;5018356;28;20206;-87
2023/05/28 08:33:23;;;;;;;9.20;5.28;;;17.60;1.00;;;;;;5016994;28;20187;-86
2023/05/28 08:35:49;;;;;;;9.73;5.40;;;18.00;99.90;;;;;;5017730;28;20198;-88
2023/05/28 08:38:15;;;;;;;8.85;4.70;;;18.20;89.30;;;;;;5016338;28;20537;-87
2023/05/28 08:40:44;;;;;;;8.77;4.65;;;18.60;99.90;;;;;;5016217;28;20180;-87
2023/05/28 08:43:10;;;;;;;10.02;5.32;;;18.90;99.90;;;;;;5018092;28;20270;-85
2023/05/28 08:45:37;;;;;;;11.30;4.90;;;19.40;1.00;;;;;;5016908;28;20241;-86
2023/05/28 08:48:06;;;;;;;9.20;5.25;;;19.60;1.00;;;;;;5019210;28;20195;-87
2023/05/28 08:50:34;;;;;;;14.10;6.00;;;19.80;1.00;;;;;;5020371;28;20266;-88
2023/05/28 08:53:02;;;;;;;11.15;5.13;;;19.80;1.00;;;;;;5020116;28;20176;-86
2023/05/28 08:55:30;;;;;;;7.82;4.88;;;20.10;1.00;;;;;;5035597;23;20188;-70
2023/05/28 08:57:58;;;;;;;11.48;4.65;;;20.30;99.90;;;;;;4980359;28;20560;-69
2023/05/28 09:00:27;;;;;;;12.90;4.60;;;20.40;99.90;;;;;;4977308;28;20252;-69
2023/05/28 09:02:53;;;;;;;10.43;4.80;;;20.60;99.90;;;;;;4960266;28;20209;-69
2023/05/28 09:05:20;;;;;;;11.63;4.38;;;20.80;2.00;;;;;;4980063;28;20197;-69
2023/05/28 09:07:46;;;;;;;9.07;4.30;;;21.00;99.90;;;;;;4994766;28;20223;-69
2023/05/28 09:10:12;;;;;;;7.63;4.22;;;21.10;1.00;;;;;;4995125;28;20266;-69
2023/05/28 09:13:02;;;;;;;10.30;4.57;;;21.00;1.00;;;;;;5011878;28;20181;-69
2023/05/28 09:15:31;;;;;;;11.07;4.65;;;21.20;1.00;;;;;;4994876;28;20671;-69
2023/05/28 09:18:01;;;;;;;8.38;4.20;;;21.30;32.10;;;;;;4995177;28;20587;-69
2023/05/28 09:20:33;;;;;;;8.93;4.60;;;21.40;99.90;;;;;;4995389;28;20211;-69
2023/05/28 09:23:06;;;;;;;8.45;3.90;;;21.40;1.00;;;;;;4994831;28;20191;-70
2023/05/28 09:25:36;;;;;;;9.57;4.38;;;21.80;99.90;;;;;;4994698;28;20184;-69
2023/05/28 09:28:02;;;;;;;8.93;4.47;;;22.10;1.00;;;;;;4994486;28;20180;-69
2023/05/28 09:30:33;;;;;;;6.05;3.83;;;22.30;99.90;;;;;;4995560;28;20208;-70
2023/05/28 09:33:07;;;;;;;8.07;4.05;;;22.40;99.90;;;;;;4994689;28;20582;-69
2023/05/28 09:35:33;;;;;;;8.43;3.92;;;22.50;69.30;;;;;;4990001;28;20189;-68
2023/05/28 09:38:01;;;;;;;4.80;3.70;;;22.40;1.00;;;;;;4995350;28;20235;-68
2023/05/28 09:40:27;;;;;;;9.07;3.78;;;22.60;1.00;;;;;;4995299;28;20204;-68
2023/05/28 09:42:53;;;;;;;8.75;3.58;;;22.60;1.00;;;;;;4994550;28;20203;-68
2023/05/28 09:45:27;;;;;;;7.55;3.72;;;22.60;53.50;;;;;;4995405;28;20548;-69
2023/05/28 09:47:53;;;;;;;9.68;4.22;;;22.50;1.00;;;;;;4996253;28;20157;-68
2023/05/28 09:50:20;;;;;;;10.20;4.13;;;22.50;1.00;;;;;;4994790;28;20209;-68
2023/05/28 09:52:46;;;;;;;9.00;3.78;;;22.60;1.00;;;;;;4995308;28;20661;-68
2023/05/28 09:55:20;;;;;;;8.48;4.03;;;22.80;47.30;;;;;;4995275;28;20172;-68
2023/05/28 09:58:06;;;;;;;7.07;3.88;;;22.80;1.00;;;;;;4994894;28;20645;-69
2023/05/28 10:00:33;;;;;;;6.18;3.60;;;22.70;99.90;;;;;;4994673;28;20251;-69
2023/05/28 10:03:17;;;;;;;7.68;4.07;;;22.70;1.00;;;;;;4993570;28;20683;-68
2023/05/28 10:05:44;;;;;;;7.15;4.00;;;23.00;99.90;;;;;;4989127;28;20196;-68
2023/05/28 10:08:16;;;;;;;6.15;3.58;;;23.10;1.00;;;;;;4993857;28;20598;-69
2023/05/28 10:10:45;;;;;;;6.00;3.25;;;23.10;99.90;;;;;;4993464;28;20208;-68
2023/05/28 10:13:12;;;;;;;9.63;3.60;;;23.00;99.90;;;;;;4993653;28;20270;-68
2023/05/28 10:15:38;;;;;;;7.10;3.40;;;22.80;1.00;;;;;;4993628;28;20183;-68
2023/05/28 10:18:06;;;;;;;6.97;3.40;;;22.90;99.90;;;;;;4994751;28;20172;-68
2023/05/28 10:20:32;;;;;;;5.80;3.20;;;23.00;1.00;;;;;;4993400;28;20271;-68
2023/05/28 10:22:58;;;;;;;6.13;3.38;;;23.10;1.00;;;;;;4993705;28;20190;-68
2023/05/28 10:25:25;;;;;;;8.02;3.50;;;23.10;1.00;;;;;;4994642;28;20180;-68
2023/05/28 10:28:03;;;;;;;7.30;3.08;;;23.20;1.00;;;;;;4994701;28;20199;-68
2023/05/28 10:30:37;;;;;;;6.05;3.05;;;23.30;1.00;;;;;;4994652;28;20569;-68
2023/05/28 10:33:16;;;;;;;6.10;3.40;;;23.30;1.00;;;;;;4994533;28;20234;-69
2023/05/28 10:35:57;;;;;;;7.13;3.10;;;23.10;1.00;;;;;;4988883;28;20196;-68
2023/05/28 10:38:23;;;;;;;5.95;3.15;;;22.90;1.00;;;;;;4995445;28;20180;-68
2023/05/28 10:40:49;;;;;;;6.53;3.17;;;22.70;1.00;;;;;;4994495;28;20618;-69
2023/05/28 10:43:40;;;;;;;6.35;3.53;;;22.60;1.00;;;;;;4994364;28;20180;-68
2023/05/28 10:46:24;;;;;;;6.05;3.50;;;22.70;1.00;;;;;;4994418;28;20192;-68
2023/05/28 10:49:13;;;;;;;8.05;3.60;;;23.00;1.00;;;;;;4994567;28;20211;-69
2023/05/28 10:51:54;;;;;;;6.55;3.10;;;23.10;1.00;;;;;;4993180;28;20219;-69
2023/05/28 10:54:45;;;;;;;7.03;3.30;;;22.80;99.90;;;;;;4993251;28;20207;-69
2023/05/28 10:57:15;;;;;;;8.55;3.03;;;22.60;99.90;;;;;;4994516;28;20304;-68
2023/05/28 10:59:46;;;;;;;6.07;2.90;;;22.80;99.90;;;;;;4994091;28;20234;-68
2023/05/28 11:02:17;;;;;;;6.65;3.55;;;22.80;99.90;;;;;;4993053;28;20271;-69
2023/05/28 11:04:43;;;;;;;4.75;3.20;;;22.90;99.90;;;;;;4990003;28;20209;-69
2023/05/28 11:07:09;;;;;;;5.82;3.00;;;23.00;99.90;;;;;;4991572;28;20228;-69
2023/05/28 11:09:35;;;;;;;6.45;3.35;;;23.00;99.90;;;;;;4994602;28;20282;-68
2023/05/28 11:12:02;;;;;;;6.45;3.78;;;23.10;99.90;;;;;;4994600;28;20196;-69
2023/05/28 11:14:45;;;;;;;4.78;3.58;;;23.20;99.90;;;;;;4994380;28;20172;-69
2023/05/28 11:17:12;;;;;;;5.38;3.33;;;23.30;99.90;;;;;;4994593;28;20167;-69
2023/05/28 11:19:46;;;;;;;5.53;3.10;;;23.50;99.90;;;;;;4993005;28;20196;-68
2023/05/28 11:22:13;;;;;;;9.45;3.63;;;23.50;99.90;;;;;;4992843;28;20393;-69
2023/05/28 11:24:58;;;;;;;7.30;3.47;;;23.60;99.90;;;;;;4994179;28;20546;-69
2023/05/28 11:27:28;;;;;;;6.95;3.45;;;23.80;99.90;;;;;;4994708;28;20168;-69
2023/05/28 11:29:56;;;;;;;6.43;3.40;;;23.70;99.90;;;;;;4993374;28;20197;-69
2023/05/28 11:32:22;;;;;;;8.15;3.58;;;23.60;99.90;;;;;;4994925;28;20211;-69
2023/05/28 11:34:49;;;;;;;7.65;3.60;;;23.80;99.90;;;;;;4990668;28;20213;-69
2023/05/28 11:37:16;;;;;;;5.68;3.60;;;24.10;99.90;;;;;;4992207;28;20188;-69
2023/05/28 11:39:55;;;;;;;6.43;3.10;;;24.30;99.90;;;;;;4995812;28;20207;-69
2023/05/28 11:42:21;;;;;;;5.07;3.40;;;24.30;99.90;;;;;;4998039;28;20614;-69
2023/05/28 11:44:49;;;;;;;7.00;3.05;;;24.10;99.90;;;;;;4997730;28;20169;-69
2023/05/28 11:47:15;;;;;;;4.68;2.90;;;24.20;99.90;;;;;;4997549;28;20176;-67
2023/05/28 11:49:44;;;;;;;5.82;3.25;;;23.80;99.90;;;;;;4997620;28;20200;-67
2023/05/28 11:52:16;;;;;;;6.53;3.55;;;23.20;99.90;;;;;;4999707;28;20196;-67
2023/05/28 11:54:45;;;;;;;5.80;3.30;;;23.00;99.90;;;;;;4995916;28;20177;-67
2023/05/28 11:57:11;;;;;;;4.85;3.08;;;22.80;99.90;;;;;;4997742;28;20200;-68
2023/05/28 11:59:38;;;;;;;7.88;3.35;;;22.70;99.90;;;;;;4997764;28;20256;-68
2023/05/28 12:02:16;;;;;;;9.18;3.90;;;23.10;99.90;;;;;;4996952;28;20184;-69
2023/05/28 12:04:57;;;;;;;6.50;3.85;;;23.40;99.90;;;;;;4997599;28;20189;-70
2023/05/28 12:07:34;;;;;;;6.72;3.10;;;23.70;99.90;;;;;;4993561;28;20541;-68
2023/05/28 12:10:09;;;;;;;4.55;2.85;;;24.30;99.90;;;;;;4976996;28;20550;-67
2023/05/28 12:12:49;;;;;;;6.03;3.28;;;24.80;99.90;;;;;;4976624;28;20188;-69
2023/05/28 12:15:16;;;;;;;5.72;2.88;;;24.90;99.90;;;;;;4976341;28;20181;-69
2023/05/28 12:17:43;;;;;;;6.45;3.17;;;24.70;99.90;;;;;;4976434;28;20211;-70
2023/05/28 12:20:14;;;;;;;5.97;3.53;;;24.60;99.90;;;;;;4978535;28;20599;-68
2023/05/28 12:22:41;;;;;;;5.82;3.50;;;24.30;99.90;;;;;;4976588;28;20181;-67
2023/05/28 12:25:07;;;;;;;6.18;2.85;;;24.40;99.90;;;;;;4977324;28;20213;-67
2023/05/28 12:27:34;;;;;;;6.07;2.90;;;24.30;99.90;;;;;;4976335;28;20604;-68
2023/05/28 12:30:00;;;;;;;6.15;3.17;;;24.40;99.90;;;;;;4977901;28;20213;-68
2023/05/28 12:32:27;;;;;;;6.80;2.95;;;24.50;99.90;;;;;;4977281;28;20212;-67
2023/05/28 12:34:56;;;;;;;5.35;3.15;;;24.60;99.90;;;;;;4975866;28;20213;-69
2023/05/28 12:37:22;;;;;;;6.05;3.30;;;24.60;99.90;;;;;;4957955;28;20174;-69
2023/05/28 12:39:48;;;;;;;5.38;3.10;;;24.80;99.90;;;;;;4956358;28;20253;-70
2023/05/28 12:42:14;;;;;;;6.53;3.65;;;25.20;99.90;;;;;;4956422;28;20181;-70
2023/05/28 12:44:40;;;;;;;5.53;3.15;;;25.00;99.90;;;;;;4956195;28;20216;-69